Time,TemperatureF,DewpointF,PressureIn,WindDirection,WindDirectionDegrees,WindSpeedMPH,WindSpeedGustMPH,Humidity,HourlyPrecipIn,Conditions,Clouds,dailyrainin,SoftwareType,DateUTC
2013-05-13 00:00:00,49.2,27.7,29.89,WSW,251,3.0,3.0,43,0.00,,---,0.00,VWS V14.01,2013-05-13 04:00:00,
2013-05-13 00:01:00,49.2,27.1,29.89,WSW,245,1.0,3.0,42,0.00,,---,0.00,VWS V14.01,2013-05-13 04:01:00,
2013-05-13 00:02:00,49.2,27.7,29.89,WSW,245,0.0,1.0,43,0.00,,---,0.00,VWS V14.01,2013-05-13 04:02:00,
2013-05-13 00:03:00,49.2,27.7,29.89,WSW,245,0.0,1.0,43,0.00,,---,0.00,VWS V14.01,2013-05-13 04:03:00,
2013-05-13 00:04:00,49.2,27.7,29.89,WSW,241,0.0,2.0,43,0.00,,---,0.00,VWS V14.01,2013-05-13 04:04:00,
2013-05-13 00:05:00,49.1,27.6,29.89,WSW,241,1.0,1.0,43,0.00,,---,0.00,VWS V14.01,2013-05-13 04:05:00,
2013-05-13 00:10:00,48.9,27.4,29.89,WSW,242,0.0,0.0,43,0.00,,---,0.00,VWS V14.01,2013-05-13 04:10:00,
2013-05-13 00:15:00,48.8,27.9,29.89,SW,236,0.0,0.0,44,0.00,,---,0.00,VWS V14.01,2013-05-13 04:15:00,
2013-05-13 00:20:00,48.5,28.1,29.89,SW,233,1.0,1.0,45,0.00,,---,0.00,VWS V14.01,2013-05-13 04:20:00,
2013-05-13 00:26:00,48.2,28.4,29.89,SW,230,1.0,2.0,46,0.00,,---,0.00,VWS V14.01,2013-05-13 04:26:00,
2013-05-13 00:32:00,47.9,28.7,29.89,WSW,239,0.0,2.0,47,0.00,,---,0.00,VWS V14.01,2013-05-13 04:32:00,
2013-05-13 00:37:00,47.7,28.5,29.90,SW,223,0.0,2.0,47,0.00,,---,0.00,VWS V14.01,2013-05-13 04:37:00,
2013-05-13 00:42:00,47.6,28.4,29.89,SSW,213,1.0,2.0,47,0.00,,---,0.00,VWS V14.01,2013-05-13 04:42:00,
2013-05-13 00:48:00,47.4,28.7,29.90,WSW,255,2.0,3.0,48,0.00,,---,0.00,VWS V14.01,2013-05-13 04:48:00,
2013-05-13 00:53:00,47.3,29.1,29.90,WSW,249,0.0,3.0,49,0.00,,---,0.00,VWS V14.01,2013-05-13 04:53:00,
2013-05-13 00:59:00,47.1,29.4,29.90,West,269,0.0,2.0,50,0.00,,---,0.00,VWS V14.01,2013-05-13 04:59:00,
2013-05-13 01:04:00,46.8,29.2,29.90,WSW,250,3.0,3.0,50,0.00,,---,0.00,VWS V14.01,2013-05-13 05:04:00,
2013-05-13 01:09:00,46.7,29.5,29.90,WSW,246,0.0,2.0,51,0.00,,---,0.00,VWS V14.01,2013-05-13 05:09:00,
2013-05-13 01:15:00,46.5,29.8,29.90,WNW,291,1.0,4.0,52,0.00,,---,0.00,VWS V14.01,2013-05-13 05:15:00,
2013-05-13 01:21:00,46.5,29.8,29.91,West,267,1.0,2.0,52,0.00,,---,0.00,VWS V14.01,2013-05-13 05:21:00,
2013-05-13 01:26:00,46.4,29.8,29.91,West,259,1.0,4.0,52,0.00,,---,0.00,VWS V14.01,2013-05-13 05:26:00,
2013-05-13 01:31:00,46.4,29.3,29.91,SW,224,2.0,2.0,51,0.00,,---,0.00,VWS V14.01,2013-05-13 05:31:00,
2013-05-13 01:36:00,46.4,29.3,29.91,SW,232,3.0,3.0,51,0.00,,---,0.00,VWS V14.01,2013-05-13 05:36:00,
2013-05-13 01:41:00,46.4,29.3,29.91,WSW,243,3.0,3.0,51,0.00,,---,0.00,VWS V14.01,2013-05-13 05:41:00,
2013-05-13 01:47:00,46.2,29.1,29.91,WSW,244,2.0,4.0,51,0.00,,---,0.00,VWS V14.01,2013-05-13 05:47:00,
2013-05-13 01:52:00,46.2,28.6,29.91,West,263,3.0,3.0,50,0.00,,---,0.00,VWS V14.01,2013-05-13 05:52:00,
2013-05-13 01:58:00,46.4,28.8,29.91,SW,225,0.0,2.0,50,0.00,,---,0.00,VWS V14.01,2013-05-13 05:58:00,
2013-05-13 02:03:00,46.2,28.1,29.91,WSW,240,2.0,4.0,49,0.00,,---,0.00,VWS V14.01,2013-05-13 06:03:00,
2013-05-13 02:08:00,46.2,28.6,29.91,WSW,252,4.0,6.0,50,0.00,,---,0.00,VWS V14.01,2013-05-13 06:08:00,
2013-05-13 02:14:00,46.1,28.5,29.91,WSW,238,4.0,4.0,50,0.00,,---,0.00,VWS V14.01,2013-05-13 06:14:00,
2013-05-13 02:19:00,46.0,28.4,29.91,WSW,238,0.0,0.0,50,0.00,,---,0.00,VWS V14.01,2013-05-13 06:19:00,
2013-05-13 02:24:00,45.8,28.2,29.91,WSW,238,0.0,0.0,50,0.00,,---,0.00,VWS V14.01,2013-05-13 06:24:00,
2013-05-13 02:29:00,45.7,28.1,29.91,WSW,238,0.0,1.0,50,0.00,,---,0.00,VWS V14.01,2013-05-13 06:29:00,
2013-05-13 02:34:00,45.4,28.4,29.91,WSW,238,0.0,2.0,51,0.00,,---,0.00,VWS V14.01,2013-05-13 06:34:00,
2013-05-13 02:39:00,45.2,28.2,29.91,WSW,239,3.0,4.0,51,0.00,,---,0.00,VWS V14.01,2013-05-13 06:39:00,
2013-05-13 02:45:00,45.1,28.1,29.91,WSW,247,0.0,1.0,51,0.00,,---,0.00,VWS V14.01,2013-05-13 06:45:00,
2013-05-13 02:50:00,44.9,28.4,29.91,WSW,247,0.0,2.0,52,0.00,,---,0.00,VWS V14.01,2013-05-13 06:50:00,
2013-05-13 02:55:00,44.8,28.3,29.91,WSW,247,0.0,0.0,52,0.00,,---,0.00,VWS V14.01,2013-05-13 06:55:00,
2013-05-13 03:00:00,44.6,28.1,29.91,WSW,247,0.0,2.0,52,0.00,,---,0.00,VWS V14.01,2013-05-13 07:00:00,
2013-05-13 03:05:00,44.5,28.5,29.91,West,261,0.0,1.0,53,0.00,,---,0.00,VWS V14.01,2013-05-13 07:05:00,
2013-05-13 03:11:00,44.3,27.8,29.91,West,261,1.0,2.0,52,0.00,,---,0.00,VWS V14.01,2013-05-13 07:11:00,
2013-05-13 03:16:00,44.5,27.5,29.91,West,272,2.0,4.0,51,0.00,,---,0.00,VWS V14.01,2013-05-13 07:16:00,
2013-05-13 03:21:00,44.5,28.0,29.91,WSW,238,3.0,7.0,52,0.00,,---,0.00,VWS V14.01,2013-05-13 07:21:00,
2013-05-13 03:27:00,44.5,28.0,29.92,SW,228,1.0,3.0,52,0.00,,---,0.00,VWS V14.01,2013-05-13 07:27:00,
2013-05-13 03:33:00,44.5,27.5,29.92,WSW,237,2.0,3.0,51,0.00,,---,0.00,VWS V14.01,2013-05-13 07:33:00,
2013-05-13 03:38:00,44.5,27.5,29.92,WSW,250,0.0,2.0,51,0.00,,---,0.00,VWS V14.01,2013-05-13 07:38:00,
2013-05-13 03:43:00,44.3,27.8,29.92,WSW,250,2.0,5.0,52,0.00,,---,0.00,VWS V14.01,2013-05-13 07:43:00,
2013-05-13 03:48:00,44.3,27.8,29.92,WSW,244,0.0,3.0,52,0.00,,---,0.00,VWS V14.01,2013-05-13 07:48:00,
2013-05-13 03:53:00,44.3,28.3,29.92,WSW,257,2.0,2.0,53,0.00,,---,0.00,VWS V14.01,2013-05-13 07:53:00,
2013-05-13 03:58:00,44.2,28.2,29.92,WSW,257,0.0,1.0,53,0.00,,---,0.00,VWS V14.01,2013-05-13 07:58:00,
2013-05-13 04:04:00,44.1,28.1,29.92,WSW,257,0.0,1.0,53,0.00,,---,0.00,VWS V14.01,2013-05-13 08:04:00,
2013-05-13 04:09:00,43.9,27.9,29.92,WSW,257,0.0,3.0,53,0.00,,---,0.00,VWS V14.01,2013-05-13 08:09:00,
2013-05-13 04:14:00,43.8,28.2,29.93,WSW,257,0.0,1.0,54,0.00,,---,0.00,VWS V14.01,2013-05-13 08:14:00,
2013-05-13 04:19:00,43.6,28.1,29.92,WSW,257,0.0,0.0,54,0.00,,---,0.00,VWS V14.01,2013-05-13 08:19:00,
2013-05-13 04:24:00,43.5,28.4,29.93,SSW,207,0.0,1.0,55,0.00,,---,0.00,VWS V14.01,2013-05-13 08:24:00,
2013-05-13 04:29:00,43.5,28.0,29.93,SW,215,0.0,0.0,54,0.00,,---,0.00,VWS V14.01,2013-05-13 08:29:00,
2013-05-13 04:34:00,43.5,28.4,29.93,SW,235,0.0,0.0,55,0.00,,---,0.00,VWS V14.01,2013-05-13 08:34:00,
2013-05-13 04:39:00,43.3,28.2,29.94,SW,235,0.0,0.0,55,0.00,,---,0.00,VWS V14.01,2013-05-13 08:39:00,
2013-05-13 04:45:00,43.2,28.6,29.94,SW,235,0.0,0.0,56,0.00,,---,0.00,VWS V14.01,2013-05-13 08:45:00,
2013-05-13 04:50:00,42.9,28.3,29.94,SW,234,0.0,1.0,56,0.00,,---,0.00,VWS V14.01,2013-05-13 08:50:00,
2013-05-13 04:55:00,42.8,28.6,29.93,SW,234,0.0,1.0,57,0.00,,---,0.00,VWS V14.01,2013-05-13 08:55:00,
2013-05-13 05:00:00,42.6,28.5,29.93,SW,234,0.0,0.0,57,0.00,,---,0.00,VWS V14.01,2013-05-13 09:00:00,
2013-05-13 05:06:00,42.5,28.8,29.94,SW,234,0.0,0.0,58,0.00,,---,0.00,VWS V14.01,2013-05-13 09:06:00,
2013-05-13 05:11:00,42.3,28.6,29.94,SW,234,0.0,0.0,58,0.00,,---,0.00,VWS V14.01,2013-05-13 09:11:00,
2013-05-13 05:16:00,42.2,28.9,29.94,SW,234,0.0,0.0,59,0.00,,---,0.00,VWS V14.01,2013-05-13 09:16:00,
2013-05-13 05:21:00,42.1,28.8,29.94,SW,234,0.0,0.0,59,0.00,,---,0.00,VWS V14.01,2013-05-13 09:21:00,
2013-05-13 05:27:00,41.9,28.6,29.94,SW,234,0.0,0.0,59,0.00,,---,0.00,VWS V14.01,2013-05-13 09:27:00,
2013-05-13 05:32:00,41.9,28.6,29.94,SW,234,0.0,0.0,59,0.00,,---,0.00,VWS V14.01,2013-05-13 09:32:00,
2013-05-13 05:37:00,41.8,28.5,29.94,SW,234,0.0,0.0,59,0.00,,---,0.00,VWS V14.01,2013-05-13 09:37:00,
2013-05-13 05:43:00,41.8,29.0,29.95,SW,234,0.0,0.0,60,0.00,,---,0.00,VWS V14.01,2013-05-13 09:43:00,
2013-05-13 05:48:00,41.8,29.0,29.95,SW,234,0.0,0.0,60,0.00,,---,0.00,VWS V14.01,2013-05-13 09:48:00,
2013-05-13 05:53:00,41.8,29.0,29.96,SW,234,0.0,0.0,60,0.00,,---,0.00,VWS V14.01,2013-05-13 09:53:00,
2013-05-13 05:59:00,41.6,28.8,29.96,SW,234,0.0,0.0,60,0.00,,---,0.00,VWS V14.01,2013-05-13 09:59:00,
2013-05-13 06:05:00,41.5,29.1,29.96,SW,234,0.0,0.0,61,0.00,,---,0.00,VWS V14.01,2013-05-13 10:05:00,
2013-05-13 06:10:00,41.5,29.1,29.96,SW,234,0.0,0.0,61,0.00,,---,0.00,VWS V14.01,2013-05-13 10:10:00,
2013-05-13 06:15:00,41.3,29.3,29.96,SW,234,0.0,0.0,62,0.00,,---,0.00,VWS V14.01,2013-05-13 10:15:00,
2013-05-13 06:20:00,41.2,29.6,29.96,SW,234,0.0,0.0,63,0.00,,---,0.00,VWS V14.01,2013-05-13 10:20:00,
2013-05-13 06:26:00,41.2,30.0,29.96,South,179,1.0,1.0,64,0.00,,---,0.00,VWS V14.01,2013-05-13 10:26:00,
2013-05-13 06:31:00,41.1,29.9,29.96,South,179,0.0,0.0,64,0.00,,---,0.00,VWS V14.01,2013-05-13 10:31:00,
2013-05-13 06:36:00,41.1,29.9,29.97,South,179,0.0,0.0,64,0.00,,---,0.00,VWS V14.01,2013-05-13 10:36:00,
2013-05-13 06:41:00,41.1,30.2,29.97,South,178,0.0,0.0,65,0.00,,---,0.00,VWS V14.01,2013-05-13 10:41:00,
2013-05-13 06:46:00,41.1,30.2,29.97,South,178,0.0,0.0,65,0.00,,---,0.00,VWS V14.01,2013-05-13 10:46:00,
2013-05-13 06:51:00,41.1,30.2,29.97,South,176,1.0,1.0,65,0.00,,---,0.00,VWS V14.01,2013-05-13 10:51:00,
2013-05-13 06:57:00,41.2,30.3,29.97,South,176,0.0,1.0,65,0.00,,---,0.00,VWS V14.01,2013-05-13 10:57:00,
2013-05-13 07:02:00,41.3,30.1,29.97,South,176,0.0,0.0,64,0.00,,---,0.00,VWS V14.01,2013-05-13 11:02:00,
2013-05-13 07:07:00,41.6,30.7,29.97,South,176,0.0,2.0,65,0.00,,---,0.00,VWS V14.01,2013-05-13 11:07:00,
2013-05-13 07:12:00,41.9,30.2,29.97,South,186,0.0,1.0,63,0.00,,---,0.00,VWS V14.01,2013-05-13 11:12:00,
2013-05-13 07:17:00,42.5,29.6,29.98,SSW,207,3.0,5.0,60,0.00,,---,0.00,VWS V14.01,2013-05-13 11:17:00,
2013-05-13 07:23:00,43.2,29.4,29.98,WNW,303,0.0,2.0,58,0.00,,---,0.00,VWS V14.01,2013-05-13 11:23:00,
2013-05-13 07:28:00,43.5,29.7,29.98,SSW,196,1.0,3.0,58,0.00,,---,0.00,VWS V14.01,2013-05-13 11:28:00,
2013-05-13 07:34:00,43.8,30.0,29.98,SSW,207,2.0,2.0,58,0.00,,---,0.00,VWS V14.01,2013-05-13 11:34:00,
2013-05-13 07:39:00,44.1,29.9,29.98,SW,222,2.0,4.0,57,0.00,,---,0.00,VWS V14.01,2013-05-13 11:39:00,
2013-05-13 07:44:00,44.2,30.8,29.98,SSW,211,2.0,4.0,59,0.00,,---,0.00,VWS V14.01,2013-05-13 11:44:00,
2013-05-13 07:50:00,44.5,29.4,29.99,WSW,238,3.0,6.0,55,0.00,,---,0.00,VWS V14.01,2013-05-13 11:50:00,
2013-05-13 07:55:00,44.5,29.4,29.98,WSW,242,1.0,6.0,55,0.00,,---,0.00,VWS V14.01,2013-05-13 11:55:00,
2013-05-13 08:00:00,44.6,29.5,29.98,West,262,3.0,3.0,55,0.00,,---,0.00,VWS V14.01,2013-05-13 12:00:00,
2013-05-13 08:05:00,44.9,30.2,29.98,SW,225,5.0,5.0,56,0.00,,---,0.00,VWS V14.01,2013-05-13 12:05:00,
2013-05-13 08:10:00,45.1,29.5,29.99,West,271,2.0,4.0,54,0.00,,---,0.00,VWS V14.01,2013-05-13 12:10:00,
2013-05-13 08:15:00,45.2,29.6,29.99,WSW,251,2.0,2.0,54,0.00,,---,0.00,VWS V14.01,2013-05-13 12:15:00,
2013-05-13 08:20:00,45.5,30.7,29.99,West,261,0.0,2.0,56,0.00,,---,0.00,VWS V14.01,2013-05-13 12:20:00,
2013-05-13 08:25:00,45.7,29.1,29.99,SSW,211,4.0,5.0,52,0.00,,---,0.00,VWS V14.01,2013-05-13 12:25:00,
2013-05-13 08:30:00,45.7,29.6,29.99,West,281,4.0,5.0,53,0.00,,---,0.00,VWS V14.01,2013-05-13 12:30:00,
2013-05-13 08:35:00,46.0,28.9,29.99,West,270,0.0,4.0,51,0.00,,---,0.00,VWS V14.01,2013-05-13 12:35:00,
2013-05-13 08:40:00,46.0,29.4,29.99,WNW,296,2.0,4.0,52,0.00,,---,0.00,VWS V14.01,2013-05-13 12:40:00,
2013-05-13 08:45:00,46.0,28.9,29.99,SW,234,4.0,4.0,51,0.00,,---,0.00,VWS V14.01,2013-05-13 12:45:00,
2013-05-13 08:50:00,46.2,29.6,29.99,SSW,208,4.0,4.0,52,0.00,,---,0.00,VWS V14.01,2013-05-13 12:50:00,
2013-05-13 08:55:00,46.4,28.8,30.00,WSW,237,3.0,6.0,50,0.00,,---,0.00,VWS V14.01,2013-05-13 12:55:00,
2013-05-13 09:00:00,46.4,28.8,30.00,SW,234,0.0,5.0,50,0.00,,---,0.00,VWS V14.01,2013-05-13 13:00:00,
2013-05-13 09:05:00,46.7,28.6,30.00,WSW,240,3.0,6.0,49,0.00,,---,0.00,VWS V14.01,2013-05-13 13:05:00,
2013-05-13 09:10:00,46.7,29.1,30.00,West,259,2.0,4.0,50,0.00,,---,0.00,VWS V14.01,2013-05-13 13:10:00,
2013-05-13 09:15:00,46.8,27.6,30.00,West,261,0.0,4.0,47,0.00,,---,0.00,VWS V14.01,2013-05-13 13:15:00,
2013-05-13 09:20:00,47.1,28.9,30.00,SW,223,2.0,5.0,49,0.00,,---,0.00,VWS V14.01,2013-05-13 13:20:00,
2013-05-13 09:26:00,47.3,27.0,30.00,WSW,244,4.0,6.0,45,0.00,,---,0.00,VWS V14.01,2013-05-13 13:26:00,
2013-05-13 09:31:00,47.3,26.5,30.00,WSW,249,2.0,3.0,44,0.00,,---,0.00,VWS V14.01,2013-05-13 13:31:00,
2013-05-13 09:36:00,47.4,27.1,30.00,WSW,241,4.0,6.0,45,0.00,,---,0.00,VWS V14.01,2013-05-13 13:36:00,
2013-05-13 09:42:00,47.9,29.2,30.00,West,259,4.0,5.0,48,0.00,,---,0.00,VWS V14.01,2013-05-13 13:42:00,
2013-05-13 09:47:00,48.0,28.2,30.00,SW,220,5.0,5.0,46,0.00,,---,0.00,VWS V14.01,2013-05-13 13:47:00,
2013-05-13 09:53:00,47.9,27.6,30.00,West,260,0.0,2.0,45,0.00,,---,0.00,VWS V14.01,2013-05-13 13:53:00,
2013-05-13 09:58:00,48.0,27.1,30.00,SW,235,0.0,2.0,44,0.00,,---,0.00,VWS V14.01,2013-05-13 13:58:00,
2013-05-13 10:04:00,48.2,27.3,30.00,WSW,256,0.0,2.0,44,0.00,,---,0.00,VWS V14.01,2013-05-13 14:04:00,
2013-05-13 10:09:00,49.1,30.3,30.00,West,261,3.0,5.0,48,0.00,,---,0.00,VWS V14.01,2013-05-13 14:09:00,
2013-05-13 10:15:00,49.2,28.8,30.00,SSW,195,1.0,4.0,45,0.00,,---,0.00,VWS V14.01,2013-05-13 14:15:00,
2013-05-13 10:20:00,49.2,27.7,30.00,WSW,242,2.0,3.0,43,0.00,,---,0.00,VWS V14.01,2013-05-13 14:20:00,
2013-05-13 10:25:00,49.1,28.7,30.00,West,275,4.0,4.0,45,0.00,,---,0.00,VWS V14.01,2013-05-13 14:25:00,
2013-05-13 10:31:00,49.1,27.0,30.00,WSW,240,3.0,5.0,42,0.00,,---,0.00,VWS V14.01,2013-05-13 14:31:00,
2013-05-13 10:36:00,49.2,28.8,30.01,SW,225,4.0,4.0,45,0.00,,---,0.00,VWS V14.01,2013-05-13 14:36:00,
2013-05-13 10:42:00,49.4,28.4,30.00,West,277,0.0,2.0,44,0.00,,---,0.00,VWS V14.01,2013-05-13 14:42:00,
2013-05-13 10:48:00,49.4,26.7,30.00,West,260,3.0,5.0,41,0.00,,---,0.00,VWS V14.01,2013-05-13 14:48:00,
2013-05-13 10:53:00,49.2,25.9,30.00,WSW,255,2.0,5.0,40,0.00,,---,0.00,VWS V14.01,2013-05-13 14:53:00,
2013-05-13 10:58:00,49.8,28.8,30.00,WNW,293,2.0,4.0,44,0.00,,---,0.00,VWS V14.01,2013-05-13 14:58:00,
2013-05-13 11:03:00,49.9,29.4,30.00,SW,217,0.0,3.0,45,0.00,,---,0.00,VWS V14.01,2013-05-13 15:03:00,
2013-05-13 11:09:00,50.1,28.5,30.00,West,275,1.0,2.0,43,0.00,,---,0.00,VWS V14.01,2013-05-13 15:09:00,
2013-05-13 11:14:00,50.2,26.2,30.01,WSW,243,4.0,5.0,39,0.00,,---,0.00,VWS V14.01,2013-05-13 15:14:00,
2013-05-13 11:19:00,50.1,27.9,30.01,WSW,252,0.0,1.0,42,0.00,,---,0.00,VWS V14.01,2013-05-13 15:19:00,
2013-05-13 11:25:00,50.5,27.1,30.00,WSW,246,1.0,6.0,40,0.00,,---,0.00,VWS V14.01,2013-05-13 15:25:00,
2013-05-13 11:31:00,50.7,25.4,30.00,WSW,249,4.0,5.0,37,0.00,,---,0.00,VWS V14.01,2013-05-13 15:31:00,
2013-05-13 11:36:00,51.1,27.6,30.00,West,265,4.0,5.0,40,0.00,,---,0.00,VWS V14.01,2013-05-13 15:36:00,
2013-05-13 11:41:00,51.4,29.1,30.00,WSW,244,0.0,4.0,42,0.00,,---,0.00,VWS V14.01,2013-05-13 15:41:00,
2013-05-13 11:46:00,51.7,28.8,30.01,SSW,204,6.0,9.0,41,0.00,,---,0.00,VWS V14.01,2013-05-13 15:46:00,
2013-05-13 11:52:00,51.6,26.8,30.01,SW,234,4.0,4.0,38,0.00,,---,0.00,VWS V14.01,2013-05-13 15:52:00,
2013-05-13 11:58:00,51.3,26.6,30.01,WSW,252,1.0,7.0,38,0.00,,---,0.00,VWS V14.01,2013-05-13 15:58:00,
2013-05-13 12:03:00,51.9,26.5,30.01,West,260,3.0,5.0,37,0.00,,---,0.00,VWS V14.01,2013-05-13 16:03:00,
2013-05-13 12:08:00,51.3,24.6,30.01,West,276,3.0,6.0,35,0.00,,---,0.00,VWS V14.01,2013-05-13 16:08:00,
2013-05-13 12:13:00,50.8,24.1,30.00,SSW,210,6.0,9.0,35,0.00,,---,0.00,VWS V14.01,2013-05-13 16:13:00,
2013-05-13 12:18:00,51.0,24.3,30.01,WSW,249,2.0,7.0,35,0.00,,---,0.00,VWS V14.01,2013-05-13 16:18:00,
2013-05-13 12:24:00,52.2,25.4,30.01,West,267,4.0,6.0,35,0.00,,---,0.00,VWS V14.01,2013-05-13 16:24:00,
2013-05-13 12:29:00,52.0,26.5,30.01,WSW,242,0.0,2.0,37,0.00,,---,0.00,VWS V14.01,2013-05-13 16:29:00,
2013-05-13 12:35:00,51.1,25.8,30.01,WSW,254,1.0,5.0,37,0.00,,---,0.00,VWS V14.01,2013-05-13 16:35:00,
2013-05-13 12:40:00,51.1,26.4,30.01,West,274,3.0,3.0,38,0.00,,---,0.00,VWS V14.01,2013-05-13 16:40:00,
2013-05-13 12:45:00,51.1,24.4,30.01,WSW,246,0.0,4.0,35,0.00,,---,0.00,VWS V14.01,2013-05-13 16:45:00,
2013-05-13 12:50:00,50.7,26.0,30.01,WSW,257,2.0,3.0,38,0.00,,---,0.00,VWS V14.01,2013-05-13 16:50:00,
2013-05-13 12:56:00,51.6,26.8,30.01,SSW,213,2.0,3.0,38,0.00,,---,0.00,VWS V14.01,2013-05-13 16:56:00,
2013-05-13 13:02:00,51.7,25.0,30.01,WSW,238,0.0,2.0,35,0.00,,---,0.00,VWS V14.01,2013-05-13 17:02:00,
2013-05-13 13:07:00,52.5,25.7,30.01,West,269,3.0,5.0,35,0.00,,---,0.00,VWS V14.01,2013-05-13 17:07:00,
2013-05-13 13:12:00,52.5,25.7,30.00,SSW,212,1.0,4.0,35,0.00,,---,0.00,VWS V14.01,2013-05-13 17:12:00,
2013-05-13 13:17:00,52.8,24.5,30.01,WSW,244,3.0,5.0,33,0.00,,---,0.00,VWS V14.01,2013-05-13 17:17:00,
2013-05-13 13:22:00,53.3,26.4,30.00,South,188,6.0,6.0,35,0.00,,---,0.00,VWS V14.01,2013-05-13 17:22:00,
2013-05-13 13:27:00,53.3,25.7,30.00,SSW,208,2.0,3.0,34,0.00,,---,0.00,VWS V14.01,2013-05-13 17:27:00,
2013-05-13 13:32:00,53.5,26.5,30.00,WSW,245,1.0,6.0,35,0.00,,---,0.00,VWS V14.01,2013-05-13 17:32:00,
2013-05-13 13:37:00,53.8,25.4,30.00,West,279,4.0,4.0,33,0.00,,---,0.00,VWS V14.01,2013-05-13 17:37:00,
2013-05-13 13:42:00,53.8,26.1,30.00,West,277,2.0,3.0,34,0.00,,---,0.00,VWS V14.01,2013-05-13 17:42:00,
2013-05-13 13:47:00,54.1,24.9,30.00,SW,227,1.0,2.0,32,0.00,,---,0.00,VWS V14.01,2013-05-13 17:47:00,
2013-05-13 13:52:00,54.1,27.1,29.99,SSW,213,0.0,1.0,35,0.00,,---,0.00,VWS V14.01,2013-05-13 17:52:00,
2013-05-13 13:57:00,54.5,30.1,30.00,West,278,0.0,4.0,39,0.00,,---,0.00,VWS V14.01,2013-05-13 17:57:00,
2013-05-13 14:02:00,54.8,25.5,30.00,SSW,205,5.0,5.0,32,0.00,,---,0.00,VWS V14.01,2013-05-13 18:02:00,
2013-05-13 14:07:00,53.3,24.2,30.00,SSE,165,2.0,5.0,32,0.00,,---,0.00,VWS V14.01,2013-05-13 18:07:00,
2013-05-13 14:12:00,52.9,28.0,30.00,SW,235,1.0,4.0,38,0.00,,---,0.00,VWS V14.01,2013-05-13 18:12:00,
2013-05-13 14:18:00,54.1,23.4,29.99,SSW,196,4.0,7.0,30,0.00,,---,0.00,VWS V14.01,2013-05-13 18:18:00,
2013-05-13 14:23:00,54.7,28.3,29.99,West,261,3.0,5.0,36,0.00,,---,0.00,VWS V14.01,2013-05-13 18:23:00,
2013-05-13 14:28:00,54.7,24.7,29.99,SSW,201,6.0,6.0,31,0.00,,---,0.00,VWS V14.01,2013-05-13 18:28:00,
2013-05-13 14:33:00,54.7,26.2,29.99,West,279,3.0,5.0,33,0.00,,---,0.00,VWS V14.01,2013-05-13 18:33:00,
2013-05-13 14:38:00,55.6,23.0,29.99,West,260,2.0,3.0,28,0.00,,---,0.00,VWS V14.01,2013-05-13 18:38:00,
2013-05-13 14:43:00,55.9,23.3,29.99,WSW,246,0.0,2.0,28,0.00,,---,0.00,VWS V14.01,2013-05-13 18:43:00,
2013-05-13 14:48:00,55.0,23.4,29.99,WSW,250,3.0,4.0,29,0.00,,---,0.00,VWS V14.01,2013-05-13 18:48:00,
2013-05-13 14:53:00,53.9,27.6,29.99,WSW,257,0.0,3.0,36,0.00,,---,0.00,VWS V14.01,2013-05-13 18:53:00,
2013-05-13 14:58:00,53.6,25.9,29.98,SW,225,4.0,4.0,34,0.00,,---,0.00,VWS V14.01,2013-05-13 18:58:00,
2013-05-13 15:03:00,54.2,25.7,29.99,NNW,336,0.0,1.0,33,0.00,,---,0.00,VWS V14.01,2013-05-13 19:03:00,
2013-05-13 15:08:00,54.4,27.3,29.99,SW,226,3.0,6.0,35,0.00,,---,0.00,VWS V14.01,2013-05-13 19:08:00,
2013-05-13 15:13:00,54.1,25.6,29.99,West,266,3.0,4.0,33,0.00,,---,0.00,VWS V14.01,2013-05-13 19:13:00,
2013-05-13 15:18:00,54.1,24.9,29.99,WSW,250,2.0,4.0,32,0.00,,---,0.00,VWS V14.01,2013-05-13 19:18:00,
2013-05-13 15:23:00,53.9,26.2,29.99,West,274,2.0,3.0,34,0.00,,---,0.00,VWS V14.01,2013-05-13 19:23:00,
2013-05-13 15:28:00,54.2,26.5,29.98,WNW,292,2.0,3.0,34,0.00,,---,0.00,VWS V14.01,2013-05-13 19:28:00,
2013-05-13 15:33:00,54.2,24.2,29.99,WSW,249,3.0,3.0,31,0.00,,---,0.00,VWS V14.01,2013-05-13 19:33:00,
2013-05-13 15:39:00,54.1,25.6,29.98,WNW,301,1.0,3.0,33,0.00,,---,0.00,VWS V14.01,2013-05-13 19:39:00,
2013-05-13 15:44:00,53.6,24.5,29.98,NNW,338,1.0,2.0,32,0.00,,---,0.00,VWS V14.01,2013-05-13 19:44:00,
2013-05-13 15:49:00,52.9,24.6,29.98,WSW,247,1.0,2.0,33,0.00,,---,0.00,VWS V14.01,2013-05-13 19:49:00,
2013-05-13 15:54:00,52.8,25.2,29.98,West,269,2.0,2.0,34,0.00,,---,0.00,VWS V14.01,2013-05-13 19:54:00,
2013-05-13 15:59:00,52.3,22.6,29.98,West,267,3.0,5.0,31,0.00,,---,0.00,VWS V14.01,2013-05-13 19:59:00,
2013-05-13 16:04:00,52.2,25.4,29.98,West,271,2.0,3.0,35,0.00,,---,0.00,VWS V14.01,2013-05-13 20:04:00,
2013-05-13 16:10:00,52.2,24.0,29.99,WSW,247,4.0,4.0,33,0.00,,---,0.00,VWS V14.01,2013-05-13 20:10:00,
2013-05-13 16:15:00,51.7,24.3,29.99,NNW,341,0.0,4.0,34,0.00,,---,0.00,VWS V14.01,2013-05-13 20:15:00,
2013-05-13 16:20:00,51.7,25.0,29.98,West,261,1.0,2.0,35,0.00,,---,0.00,VWS V14.01,2013-05-13 20:20:00,
2013-05-13 16:25:00,51.7,24.3,29.99,WSW,256,4.0,4.0,34,0.00,,---,0.00,VWS V14.01,2013-05-13 20:25:00,
2013-05-13 16:30:00,51.7,24.3,29.99,West,271,2.0,5.0,34,0.00,,---,0.00,VWS V14.01,2013-05-13 20:30:00,
2013-05-13 16:35:00,52.0,23.8,29.99,WSW,249,0.0,3.0,33,0.00,,---,0.00,VWS V14.01,2013-05-13 20:35:00,
2013-05-13 16:41:00,52.0,25.9,29.99,West,263,1.0,3.0,36,0.00,,---,0.00,VWS V14.01,2013-05-13 20:41:00,
2013-05-13 16:45:00,51.6,22.0,29.99,SW,232,3.0,4.0,31,0.00,,---,0.00,VWS V14.01,2013-05-13 20:45:00,
2013-05-13 16:51:00,51.6,22.7,29.98,SW,223,2.0,5.0,32,0.00,,---,0.00,VWS V14.01,2013-05-13 20:51:00,
2013-05-13 16:56:00,52.2,24.7,29.98,NNW,338,2.0,3.0,34,0.00,,---,0.00,VWS V14.01,2013-05-13 20:56:00,
2013-05-13 17:01:00,53.1,23.3,29.98,NW,317,0.0,1.0,31,0.00,,---,0.00,VWS V14.01,2013-05-13 21:01:00,
2013-05-13 17:06:00,53.5,22.9,29.98,SW,236,4.0,4.0,30,0.00,,---,0.00,VWS V14.01,2013-05-13 21:06:00,
2013-05-13 17:11:00,53.5,24.4,29.98,West,261,1.0,4.0,32,0.00,,---,0.00,VWS V14.01,2013-05-13 21:11:00,
2013-05-13 17:17:00,53.3,23.5,29.98,West,271,3.0,4.0,31,0.00,,---,0.00,VWS V14.01,2013-05-13 21:17:00,
2013-05-13 17:23:00,53.5,22.9,29.98,SSW,203,4.0,7.0,30,0.00,,---,0.00,VWS V14.01,2013-05-13 21:23:00,
2013-05-13 17:29:00,53.6,23.7,29.98,WSW,248,2.0,3.0,31,0.00,,---,0.00,VWS V14.01,2013-05-13 21:29:00,
2013-05-13 17:34:00,53.2,22.6,29.98,SW,220,1.0,3.0,30,0.00,,---,0.00,VWS V14.01,2013-05-13 21:34:00,
2013-05-13 17:39:00,52.8,25.2,29.98,WSW,242,0.0,4.0,34,0.00,,---,0.00,VWS V14.01,2013-05-13 21:39:00,
2013-05-13 17:45:00,53.1,25.5,29.98,WSW,256,2.0,3.0,34,0.00,,---,0.00,VWS V14.01,2013-05-13 21:45:00,
2013-05-13 17:50:00,53.2,24.9,29.98,SW,229,3.0,4.0,33,0.00,,---,0.00,VWS V14.01,2013-05-13 21:50:00,
2013-05-13 17:56:00,52.5,22.8,29.98,WSW,252,0.0,5.0,31,0.00,,---,0.00,VWS V14.01,2013-05-13 21:56:00,
2013-05-13 18:01:00,52.3,24.1,29.99,WSW,257,1.0,4.0,33,0.00,,---,0.00,VWS V14.01,2013-05-13 22:01:00,
2013-05-13 18:06:00,52.2,25.4,29.99,SW,227,0.0,4.0,35,0.00,,---,0.00,VWS V14.01,2013-05-13 22:06:00,
2013-05-13 18:11:00,52.0,24.5,29.99,WSW,250,1.0,2.0,34,0.00,,---,0.00,VWS V14.01,2013-05-13 22:11:00,
2013-05-13 18:17:00,51.9,23.7,29.99,West,275,1.0,2.0,33,0.00,,---,0.00,VWS V14.01,2013-05-13 22:17:00,
2013-05-13 18:22:00,51.7,24.3,29.99,West,275,0.0,2.0,34,0.00,,---,0.00,VWS V14.01,2013-05-13 22:22:00,
2013-05-13 18:28:00,51.3,25.3,29.99,West,269,0.0,0.0,36,0.00,,---,0.00,VWS V14.01,2013-05-13 22:28:00,
2013-05-13 18:33:00,50.8,26.1,29.99,NE,35,0.0,0.0,38,0.00,,---,0.00,VWS V14.01,2013-05-13 22:33:00,
2013-05-13 18:38:00,50.4,25.8,30.00,WSW,254,1.0,1.0,38,0.00,,---,0.00,VWS V14.01,2013-05-13 22:38:00,
2013-05-13 18:44:00,50.1,27.3,29.99,WSW,254,0.0,1.0,41,0.00,,---,0.00,VWS V14.01,2013-05-13 22:44:00,
2013-05-13 18:49:00,49.9,27.1,30.00,WSW,254,0.0,1.0,41,0.00,,---,0.00,VWS V14.01,2013-05-13 22:49:00,
2013-05-13 18:54:00,49.8,27.1,30.00,NNW,329,1.0,1.0,41,0.00,,---,0.00,VWS V14.01,2013-05-13 22:54:00,
2013-05-13 18:59:00,49.8,28.2,30.00,NNW,328,0.0,0.0,43,0.00,,---,0.00,VWS V14.01,2013-05-13 22:59:00,
2013-05-13 19:05:00,49.5,28.5,30.00,NNW,336,0.0,1.0,44,0.00,,---,0.00,VWS V14.01,2013-05-13 23:05:00,
2013-05-13 19:11:00,49.4,27.9,30.00,WSW,258,0.0,1.0,43,0.00,,---,0.00,VWS V14.01,2013-05-13 23:11:00,
2013-05-13 19:16:00,49.4,29.0,30.00,WSW,258,0.0,0.0,45,0.00,,---,0.00,VWS V14.01,2013-05-13 23:16:00,
2013-05-13 19:21:00,49.4,28.4,30.01,WSW,242,0.0,2.0,44,0.00,,---,0.00,VWS V14.01,2013-05-13 23:21:00,
2013-05-13 19:26:00,49.2,27.7,30.01,NNW,340,0.0,0.0,43,0.00,,---,0.00,VWS V14.01,2013-05-13 23:26:00,
2013-05-13 19:32:00,49.1,28.7,30.01,NNW,337,0.0,1.0,45,0.00,,---,0.00,VWS V14.01,2013-05-13 23:32:00,
2013-05-13 19:37:00,48.8,27.9,30.01,West,265,0.0,1.0,44,0.00,,---,0.00,VWS V14.01,2013-05-13 23:37:00,
2013-05-13 19:42:00,48.6,28.8,30.02,West,265,0.0,0.0,46,0.00,,---,0.00,VWS V14.01,2013-05-13 23:42:00,
2013-05-13 19:47:00,48.5,27.6,30.02,West,265,0.0,0.0,44,0.00,,---,0.00,VWS V14.01,2013-05-13 23:47:00,
2013-05-13 19:52:00,48.3,28.0,30.03,SW,236,0.0,2.0,45,0.00,,---,0.00,VWS V14.01,2013-05-13 23:52:00,
2013-05-13 19:57:00,47.9,28.7,30.03,North,5,3.0,3.0,47,0.00,,---,0.00,VWS V14.01,2013-05-13 23:57:00,
2013-05-13 20:02:00,47.6,28.9,30.03,North,10,0.0,0.0,48,0.00,,---,0.00,VWS V14.01,2013-05-14 00:02:00,
2013-05-13 20:08:00,47.1,28.9,30.03,NW,315,0.0,0.0,49,0.00,,---,0.00,VWS V14.01,2013-05-14 00:08:00,
2013-05-13 20:13:00,46.8,29.2,30.03,NNW,328,0.0,3.0,50,0.00,,---,0.00,VWS V14.01,2013-05-14 00:13:00,
2013-05-13 20:18:00,46.7,29.1,30.03,NNW,328,0.0,0.0,50,0.00,,---,0.00,VWS V14.01,2013-05-14 00:18:00,
2013-05-13 20:23:00,46.4,29.8,30.03,NNW,328,0.0,0.0,52,0.00,,---,0.00,VWS V14.01,2013-05-14 00:23:00,
2013-05-13 20:28:00,46.1,29.5,30.03,NNW,328,0.0,0.0,52,0.00,,---,0.00,VWS V14.01,2013-05-14 00:28:00,
2013-05-13 20:34:00,45.8,29.7,30.04,NNW,328,0.0,0.0,53,0.00,,---,0.00,VWS V14.01,2013-05-14 00:34:00,
2013-05-13 20:39:00,45.5,29.4,30.04,NNW,328,0.0,0.0,53,0.00,,---,0.00,VWS V14.01,2013-05-14 00:39:00,
2013-05-13 20:44:00,45.2,29.6,30.04,NNW,328,0.0,0.0,54,0.00,,---,0.00,VWS V14.01,2013-05-14 00:44:00,
2013-05-13 20:49:00,44.9,29.3,30.04,NNW,328,0.0,0.0,54,0.00,,---,0.00,VWS V14.01,2013-05-14 00:49:00,
2013-05-13 20:55:00,44.6,29.9,30.05,NNW,328,0.0,0.0,56,0.00,,---,0.00,VWS V14.01,2013-05-14 00:55:00,
2013-05-13 21:00:00,44.3,30.0,30.05,NNW,328,0.0,0.0,57,0.00,,---,0.00,VWS V14.01,2013-05-14 01:00:00,
2013-05-13 21:05:00,44.2,30.4,30.06,NNW,328,0.0,0.0,58,0.00,,---,0.00,VWS V14.01,2013-05-14 01:05:00,
2013-05-13 21:10:00,43.9,30.9,30.06,NNW,328,0.0,0.0,60,0.00,,---,0.00,VWS V14.01,2013-05-14 01:10:00,
2013-05-13 21:15:00,43.6,30.6,30.06,NNW,328,0.0,0.0,60,0.00,,---,0.00,VWS V14.01,2013-05-14 01:15:00,
2013-05-13 21:21:00,43.2,30.3,30.06,NNW,328,0.0,0.0,60,0.00,,---,0.00,VWS V14.01,2013-05-14 01:21:00,
2013-05-13 21:27:00,42.8,29.9,30.07,NNW,328,0.0,0.0,60,0.00,,---,0.00,VWS V14.01,2013-05-14 01:27:00,
2013-05-13 21:32:00,42.6,30.5,30.07,NNW,328,0.0,0.0,62,0.00,,---,0.00,VWS V14.01,2013-05-14 01:32:00,
2013-05-13 21:37:00,42.3,30.2,30.07,NNW,328,0.0,0.0,62,0.00,,---,0.00,VWS V14.01,2013-05-14 01:37:00,
2013-05-13 21:42:00,42.2,30.5,30.08,NNW,328,0.0,0.0,63,0.00,,---,0.00,VWS V14.01,2013-05-14 01:42:00,
2013-05-13 21:48:00,42.2,30.1,30.08,NNW,328,0.0,0.0,62,0.00,,---,0.00,VWS V14.01,2013-05-14 01:48:00,
2013-05-13 21:53:00,42.1,30.4,30.08,NNW,328,0.0,0.0,63,0.00,,---,0.00,VWS V14.01,2013-05-14 01:53:00,
2013-05-13 21:58:00,41.9,30.2,30.08,NNW,328,0.0,0.0,63,0.00,,---,0.00,VWS V14.01,2013-05-14 01:58:00,
2013-05-13 22:03:00,41.8,30.5,30.08,NNW,328,0.0,0.0,64,0.00,,---,0.00,VWS V14.01,2013-05-14 02:03:00,
2013-05-13 22:09:00,41.5,30.6,30.08,NNW,328,0.0,0.0,65,0.00,,---,0.00,VWS V14.01,2013-05-14 02:09:00,
2013-05-13 22:14:00,41.3,30.4,30.08,NNW,328,0.0,0.0,65,0.00,,---,0.00,VWS V14.01,2013-05-14 02:14:00,
2013-05-13 22:19:00,41.2,30.7,30.08,NNW,328,0.0,0.0,66,0.00,,---,0.00,VWS V14.01,2013-05-14 02:19:00,
2013-05-13 22:24:00,41.1,31.0,30.08,NNW,328,0.0,0.0,67,0.00,,---,0.00,VWS V14.01,2013-05-14 02:24:00,
2013-05-13 22:30:00,40.8,31.1,30.08,NNW,328,0.0,0.0,68,0.00,,---,0.00,VWS V14.01,2013-05-14 02:30:00,
2013-05-13 22:35:00,40.6,31.2,30.08,NNW,328,0.0,0.0,69,0.00,,---,0.00,VWS V14.01,2013-05-14 02:35:00,
2013-05-13 22:40:00,40.5,31.5,30.08,NNW,328,0.0,0.0,70,0.00,,---,0.00,VWS V14.01,2013-05-14 02:40:00,
2013-05-13 22:45:00,40.3,31.3,30.08,NNW,328,0.0,0.0,70,0.00,,---,0.00,VWS V14.01,2013-05-14 02:45:00,
2013-05-13 22:50:00,40.2,31.9,30.08,NNW,328,0.0,0.0,72,0.00,,---,0.00,VWS V14.01,2013-05-14 02:50:00,
2013-05-13 22:55:00,39.8,31.5,30.08,NNW,328,0.0,0.0,72,0.00,,---,0.00,VWS V14.01,2013-05-14 02:55:00,
2013-05-13 23:00:00,39.5,31.2,30.08,NNW,328,0.0,0.0,72,0.00,,---,0.00,VWS V14.01,2013-05-14 03:00:00,
2013-05-13 23:05:00,39.2,31.3,30.08,NNW,328,0.0,0.0,73,0.00,,---,0.00,VWS V14.01,2013-05-14 03:05:00,
2013-05-13 23:10:00,39.1,31.5,30.08,NNW,328,0.0,0.0,74,0.00,,---,0.00,VWS V14.01,2013-05-14 03:10:00,
2013-05-13 23:15:00,38.9,32.0,30.08,NNW,328,0.0,0.0,76,0.00,,---,0.00,VWS V14.01,2013-05-14 03:15:00,
2013-05-13 23:20:00,38.6,31.4,30.08,NNW,328,0.0,0.0,75,0.00,,---,0.00,VWS V14.01,2013-05-14 03:20:00,
2013-05-13 23:25:00,38.5,31.6,30.08,NNW,328,0.0,0.0,76,0.00,,---,0.00,VWS V14.01,2013-05-14 03:25:00,
2013-05-13 23:31:00,38.3,31.4,30.08,NNW,328,0.0,0.0,76,0.00,,---,0.00,VWS V14.01,2013-05-14 03:31:00,
2013-05-13 23:36:00,38.2,31.6,30.08,NNW,328,0.0,0.0,77,0.00,,---,0.00,VWS V14.01,2013-05-14 03:36:00,
2013-05-13 23:41:00,38.0,31.8,30.08,NNW,328,0.0,0.0,78,0.00,,---,0.00,VWS V14.01,2013-05-14 03:41:00,
2013-05-13 23:46:00,37.9,32.0,30.08,NNW,328,0.0,0.0,79,0.00,,---,0.00,VWS V14.01,2013-05-14 03:46:00,
2013-05-13 23:51:00,37.8,31.9,30.08,NNW,328,0.0,0.0,79,0.00,,---,0.00,VWS V14.01,2013-05-14 03:51:00,
2013-05-13 23:56:00,37.6,32.0,30.08,NNW,328,0.0,0.0,80,0.00,,---,0.00,VWS V14.01,2013-05-14 03:56:00,